Time;durP1;ratioP1;P1;durP2;ratioP2;P2;SDS_P1;SDS_P2;PMS_P1;PMS_P2;Temp;Humidity;BMP_temperature;BMP_pressure;BME280_temperature;BME280_humidity;BME280_pressure;Samples;Min_cycle;Max_cycle;Signal;HPM_P1;HPM_P2
2021/04/24 00:00:29;;;;;;;19.52;7.97;;;;;;;10.03;53.73;101927.38;4413205;32;20123;-74
2021/04/24 00:02:55;;;;;;;18.17;6.68;;;;;;;10.30;53.01;101929.72;4412995;32;21172;-73
2021/04/24 00:05:28;;;;;;;17.58;6.62;;;;;;;9.94;53.91;101929.00;4411852;32;20057;-74
2021/04/24 00:07:55;;;;;;;23.38;7.10;;;;;;;9.89;54.21;101935.88;4409694;32;20057;-74
2021/04/24 00:10:22;;;;;;;15.07;5.70;;;;;;;9.80;54.75;101929.88;4413214;32;20111;-74
2021/04/24 00:12:48;;;;;;;17.48;6.10;;;;;;;9.80;54.62;101934.69;4411966;32;20038;-74
2021/04/24 00:15:15;;;;;;;14.20;5.47;;;;;;;9.76;54.74;101934.66;4412831;32;20141;-74
2021/04/24 00:17:41;;;;;;;18.10;5.90;;;;;;;9.69;54.97;101925.44;4411384;32;20087;-74
2021/04/24 00:20:12;;;;;;;16.55;6.45;;;;;;;9.63;55.19;101933.50;4411046;32;20063;-74
2021/04/24 00:22:38;;;;;;;26.05;6.12;;;;;;;9.59;55.19;101926.28;4410956;32;20081;-74
2021/04/24 00:25:05;;;;;;;19.58;6.43;;;;;;;9.46;55.49;101925.09;4411900;32;20403;-74
2021/04/24 00:27:31;;;;;;;18.42;5.47;;;;;;;9.39;55.92;101922.28;4409730;32;20064;-73
2021/04/24 00:29:57;;;;;;;16.95;6.60;;;;;;;9.38;55.83;101927.09;4410839;32;20045;-73
2021/04/24 00:32:23;;;;;;;17.08;5.70;;;;;;;9.29;56.20;101923.88;4407646;32;20086;-74
2021/04/24 00:34:49;;;;;;;10.55;5.10;;;;;;;9.28;56.23;101919.47;4413426;32;20083;-74
2021/04/24 00:37:15;;;;;;;16.33;5.37;;;;;;;9.24;56.19;101915.84;4414893;32;20045;-74
2021/04/24 00:39:41;;;;;;;17.95;6.05;;;;;;;9.24;56.30;101915.06;4408034;32;20093;-74
2021/04/24 00:42:07;;;;;;;20.83;6.90;;;;;;;9.24;56.33;101917.87;4412691;32;20077;-73
2021/04/24 00:44:33;;;;;;;14.07;6.35;;;;;;;9.18;56.58;101920.25;4414411;32;20461;-74
2021/04/24 00:47:00;;;;;;;17.80;6.72;;;;;;;9.24;56.27;101920.69;4411141;32;20423;-73
2021/04/24 00:49:25;;;;;;;13.10;5.82;;;;;;;9.25;56.06;101922.28;4411766;32;20107;-73
2021/04/24 00:51:52;;;;;;;13.45;6.12;;;;;;;9.24;55.90;101915.84;4410369;32;20136;-73
2021/04/24 00:54:18;;;;;;;16.12;5.45;;;;;;;9.23;55.78;101921.87;4414630;32;20078;-74
2021/04/24 00:56:44;;;;;;;16.37;5.87;;;;;;;9.18;55.68;101923.06;4396147;32;20076;-74
2021/04/24 00:59:10;;;;;;;15.05;7.07;;;;;;;9.24;55.67;101915.06;4411872;32;20409;-74
2021/04/24 01:01:36;;;;;;;18.45;7.07;;;;;;;9.23;56.15;101911.44;4412225;32;20077;-73
2021/04/24 01:04:02;;;;;;;18.48;7.28;;;;;;;9.27;56.40;101917.06;4410266;32;20436;-74
2021/04/24 01:06:28;;;;;;;17.30;7.50;;;;;;;9.26;56.65;101915.44;4409292;32;20070;-74
2021/04/24 01:08:53;;;;;;;20.17;7.95;;;;;;;9.26;56.67;101907.00;4410490;32;20033;-74
2021/04/24 01:11:19;;;;;;;21.37;8.15;;;;;;;9.23;56.69;101902.19;4409129;32;20436;-73
2021/04/24 01:13:45;;;;;;;15.25;7.97;;;;;;;9.24;56.43;101901.78;4412246;32;20030;-74
2021/04/24 01:16:11;;;;;;;23.87;8.75;;;;;;;9.19;56.30;101907.84;4410047;32;20076;-73
2021/04/24 01:18:37;;;;;;;23.38;7.90;;;;;;;9.23;56.29;101899.38;4412418;32;20053;-74
2021/04/24 01:21:05;;;;;;;16.20;6.22;;;;;;;9.25;56.28;101908.22;4413060;32;20394;-73
2021/04/24 01:23:33;;;;;;;17.20;7.50;;;;;;;9.24;56.09;101901.78;4401203;32;20034;-74
2021/04/24 01:26:00;;;;;;;13.75;6.68;;;;;;;9.22;56.37;101903.41;4410840;32;20054;-73
2021/04/24 01:28:28;;;;;;;19.35;7.75;;;;;;;9.18;56.38;101906.22;4412161;32;21291;-74
2021/04/24 01:30:54;;;;;;;14.60;7.05;;;;;;;9.24;56.25;101904.59;4411670;32;20328;-72
2021/04/24 01:33:21;;;;;;;16.17;7.60;;;;;;;9.17;56.50;101901.00;4409319;32;20076;-74
2021/04/24 01:35:47;;;;;;;18.15;7.30;;;;;;;9.20;56.39;101898.19;4392071;32;20042;-73
2021/04/24 01:38:13;;;;;;;20.25;6.20;;;;;;;9.18;56.23;101906.22;4411791;32;20401;-74
2021/04/24 01:40:40;;;;;;;18.35;6.82;;;;;;;9.16;56.07;101900.22;4408898;32;20073;-73
2021/04/24 01:43:06;;;;;;;16.42;6.10;;;;;;;9.18;55.82;101908.25;4409268;32;20064;-74
2021/04/24 01:45:33;;;;;;;14.73;6.03;;;;;;;9.15;55.75;101901.44;4413624;32;20081;-73
2021/04/24 01:47:59;;;;;;;18.67;6.05;;;;;;;9.11;55.43;101900.59;4412351;32;20075;-74
2021/04/24 01:50:30;;;;;;;19.25;6.80;;;;;;;9.09;55.77;101902.22;4410366;32;20115;-73
2021/04/24 01:52:57;;;;;;;15.50;6.43;;;;;;;9.09;55.90;101893.78;4411461;32;20069;-73
2021/04/24 01:55:28;;;;;;;17.48;6.22;;;;;;;9.04;55.83;101888.56;4413607;32;20049;-73
2021/04/24 01:57:56;;;;;;;17.45;7.45;;;;;;;9.00;55.91;101893.38;4412792;32;20098;-74
2021/04/24 02:00:29;;;;;;;20.62;6.45;;;;;;;8.95;56.01;101886.16;4392691;32;20416;-73
2021/04/24 02:02:57;;;;;;;15.68;6.60;;;;;;;8.94;56.11;101892.97;4410264;32;20042;-73
2021/04/24 02:05:23;;;;;;;19.25;6.47;;;;;;;8.92;55.78;101889.75;4406148;32;20030;-73
2021/04/24 02:08:04;;;;;;;14.87;6.50;;;;;;;8.87;56.32;101887.34;4412669;32;20103;-73
2021/04/24 02:10:31;;;;;;;15.88;5.68;;;;;;;8.85;56.56;101892.56;4409615;32;20724;-73
2021/04/24 02:12:59;;;;;;;12.75;5.32;;;;;;;8.76;56.67;101888.53;4394263;32;20410;-74
2021/04/24 02:15:25;;;;;;;15.70;6.05;;;;;;;8.76;56.46;101888.53;4411566;32;20120;-74
2021/04/24 02:17:50;;;;;;;11.68;5.95;;;;;;;8.74;56.45;101890.94;4409205;32;20042;-74
2021/04/24 02:20:17;;;;;;;14.00;5.85;;;;;;;8.71;56.62;101897.38;4408601;32;20081;-74
2021/04/24 02:22:43;;;;;;;15.57;5.32;;;;;;;8.71;56.66;101892.53;4410213;32;20512;-73
2021/04/24 02:25:14;;;;;;;16.40;5.40;;;;;;;8.67;56.33;101886.12;4410560;32;20061;-73
2021/04/24 02:27:39;;;;;;;12.05;4.65;;;;;;;8.76;56.09;101892.16;4413447;32;20061;-75
2021/04/24 02:30:08;;;;;;;10.63;4.78;;;;;;;8.76;55.65;101886.53;4412171;32;20696;-73
2021/04/24 02:32:35;;;;;;;16.40;5.15;;;;;;;8.76;55.42;101883.72;4409910;32;20087;-74
2021/04/24 02:35:00;;;;;;;11.15;4.50;;;;;;;8.75;55.33;101884.94;4412186;32;20721;-74
2021/04/24 02:37:26;;;;;;;12.60;4.45;;;;;;;8.73;55.28;101894.94;4411666;32;20061;-74
2021/04/24 02:39:54;;;;;;;10.70;4.18;;;;;;;8.72;55.09;101899.78;4412706;32;20077;-74
2021/04/24 02:42:25;;;;;;;9.88;4.32;;;;;;;8.72;54.74;101891.34;4408986;32;20046;-74
2021/04/24 02:44:52;;;;;;;12.10;4.00;;;;;;;8.72;54.63;101898.97;4410841;32;20054;-74
2021/04/24 02:47:19;;;;;;;9.88;4.07;;;;;;;8.71;54.45;101892.53;4410263;32;20700;-74
2021/04/24 02:49:45;;;;;;;10.13;3.80;;;;;;;8.65;54.36;101888.50;4406978;32;20053;-74
2021/04/24 02:52:11;;;;;;;10.10;4.22;;;;;;;8.67;54.19;101891.72;4408842;32;20038;-74
2021/04/24 02:54:38;;;;;;;15.18;4.15;;;;;;;8.69;54.10;101900.56;4412594;32;20454;-74
2021/04/24 02:57:04;;;;;;;16.30;4.10;;;;;;;8.64;54.24;101900.12;4412033;32;20084;-73
2021/04/24 02:59:30;;;;;;;14.13;4.75;;;;;;;8.58;54.33;101898.91;4409365;32;20066;-74
2021/04/24 03:01:56;;;;;;;7.60;3.58;;;;;;;8.58;54.33;101896.91;4402734;32;20042;-73
2021/04/24 03:04:22;;;;;;;11.18;4.15;;;;;;;8.54;54.79;101889.69;4401526;32;20026;-73
2021/04/24 03:06:48;;;;;;;14.75;4.53;;;;;;;8.48;55.03;101888.47;4402424;32;20041;-73
2021/04/24 03:09:14;;;;;;;10.80;4.78;;;;;;;8.44;55.48;101893.28;4401131;32;20068;-73
2021/04/24 03:11:41;;;;;;;10.65;4.95;;;;;;;8.37;56.00;101888.44;4407197;32;20350;-73
2021/04/24 03:14:07;;;;;;;11.80;4.75;;;;;;;8.39;56.23;101880.44;4406875;32;20105;-74
2021/04/24 03:16:34;;;;;;;11.57;4.40;;;;;;;8.31;56.35;101887.22;4406436;32;20073;-73
2021/04/24 03:19:00;;;;;;;10.20;4.78;;;;;;;8.27;56.06;101886.41;4410020;32;20516;-73
2021/04/24 03:21:27;;;;;;;10.20;4.68;;;;;;;8.26;55.94;101893.22;4405411;32;20034;-73
2021/04/24 03:23:53;;;;;;;11.80;4.12;;;;;;;8.18;56.51;101897.16;4404797;32;20140;-74
2021/04/24 03:26:20;;;;;;;11.02;4.28;;;;;;;8.13;56.53;101892.72;4405939;32;20041;-73
2021/04/24 03:28:46;;;;;;;9.45;4.03;;;;;;;8.15;56.23;101895.94;4404752;32;20042;-73
2021/04/24 03:31:12;;;;;;;11.00;4.47;;;;;;;8.11;56.43;101900.72;4404088;32;20113;-74
2021/04/24 03:33:39;;;;;;;10.35;3.95;;;;;;;8.06;56.81;101892.72;4405513;32;20038;-73
2021/04/24 03:36:05;;;;;;;12.15;4.80;;;;;;;8.02;57.14;101893.88;4391475;32;20034;-74
2021/04/24 03:38:31;;;;;;;10.90;4.37;;;;;;;7.97;57.27;101892.25;4404906;32;20082;-72
2021/04/24 03:40:57;;;;;;;7.97;3.95;;;;;;;7.88;57.44;101885.41;4403687;32;20115;-74
2021/04/24 03:43:23;;;;;;;8.20;3.60;;;;;;;7.92;57.11;101884.22;4408360;32;20058;-72
2021/04/24 03:45:49;;;;;;;8.98;3.62;;;;;;;7.85;56.94;101889.78;4407574;32;20053;-75
2021/04/24 03:48:15;;;;;;;11.50;4.00;;;;;;;7.80;57.06;101881.75;4407668;32;20034;-73
2021/04/24 03:50:40;;;;;;;9.52;3.58;;;;;;;7.80;57.03;101886.56;4404305;32;20070;-74
2021/04/24 03:53:07;;;;;;;9.80;3.85;;;;;;;7.74;57.07;101893.75;4403697;32;20082;-73
2021/04/24 03:55:32;;;;;;;6.78;3.65;;;;;;;7.77;56.82;101893.75;4408552;32;20053;-74
2021/04/24 03:58:00;;;;;;;8.35;3.85;;;;;;;7.83;56.69;101891.41;4406642;32;20472;-75
2021/04/24 04:00:28;;;;;;;11.15;3.62;;;;;;;7.71;57.18;101892.50;4406988;32;20329;-74
2021/04/24 04:02:57;;;;;;;11.52;4.05;;;;;;;7.66;57.49;101889.28;4406180;32;20034;-74
2021/04/24 04:05:26;;;;;;;12.27;4.15;;;;;;;7.67;57.54;101888.88;4406029;32;20086;-73
2021/04/24 04:07:52;;;;;;;12.20;4.60;;;;;;;7.67;57.50;101894.50;4407434;32;20074;-72
2021/04/24 04:10:19;;;;;;;12.55;4.32;;;;;;;7.65;57.82;101890.47;4408223;32;20482;-74
2021/04/24 04:12:46;;;;;;;9.98;4.30;;;;;;;7.64;57.88;101894.47;4404264;32;20154;-73
2021/04/24 04:15:13;;;;;;;16.20;4.30;;;;;;;7.62;57.78;101892.06;4407425;32;20033;-74
2021/04/24 04:17:39;;;;;;;9.68;3.92;;;;;;;7.63;57.66;101901.25;4405191;32;20054;-73
2021/04/24 04:20:07;;;;;;;12.27;3.75;;;;;;;7.60;57.61;101899.25;4405087;32;20034;-74
2021/04/24 04:22:33;;;;;;;13.50;4.28;;;;;;;7.49;57.81;101887.97;4407607;32;20042;-73
2021/04/24 04:24:59;;;;;;;9.27;4.72;;;;;;;7.50;57.74;101895.19;4407902;32;20061;-73
2021/04/24 04:27:25;;;;;;;16.98;4.80;;;;;;;7.50;57.66;101894.37;4406715;32;20043;-74
2021/04/24 04:29:52;;;;;;;11.23;4.40;;;;;;;7.45;57.92;101908.75;4395035;32;20461;-73
2021/04/24 04:32:19;;;;;;;11.05;5.00;;;;;;;7.43;57.94;101894.34;4403163;32;20154;-74
2021/04/24 04:34:44;;;;;;;11.73;4.90;;;;;;;7.36;57.88;101903.47;4407362;32;20042;-73
2021/04/24 04:37:10;;;;;;;15.48;5.47;;;;;;;7.32;58.14;101911.06;4407667;32;20092;-73
2021/04/24 04:39:37;;;;;;;13.27;5.25;;;;;;;7.35;58.03;101906.66;4402886;32;20569;-73
2021/04/24 04:42:03;;;;;;;15.18;5.78;;;;;;;7.21;58.79;101900.97;4406143;32;20188;-74
2021/04/24 04:44:28;;;;;;;10.98;5.00;;;;;;;7.45;58.03;101906.75;4410847;32;20080;-73
2021/04/24 04:46:54;;;;;;;11.82;5.70;;;;;;;7.27;58.29;101905.03;4406774;32;20033;-74
2021/04/24 04:49:20;;;;;;;11.48;4.93;;;;;;;7.19;58.58;101909.75;4403431;32;20343;-74
2021/04/24 04:51:46;;;;;;;10.45;4.18;;;;;;;7.17;59.02;101908.53;4403841;32;20095;-73
2021/04/24 04:54:12;;;;;;;11.05;4.50;;;;;;;7.23;58.58;101909.78;4405109;32;20103;-74
2021/04/24 04:56:38;;;;;;;11.40;4.82;;;;;;;7.16;59.09;101910.53;4408714;32;20049;-74
2021/04/24 04:59:04;;;;;;;11.70;5.30;;;;;;;7.16;59.16;101913.34;4408744;32;20099;-74
2021/04/24 05:01:30;;;;;;;12.48;5.53;;;;;;;7.20;58.90;101916.12;4402683;32;20090;-75
2021/04/24 05:03:55;;;;;;;12.88;5.57;;;;;;;7.19;58.77;101915.34;4403110;32;20169;-74
2021/04/24 05:06:21;;;;;;;11.20;4.68;;;;;;;7.26;58.66;101914.59;4403761;32;20042;-74
2021/04/24 05:08:48;;;;;;;15.60;5.93;;;;;;;7.23;58.95;101918.97;4403082;32;20660;-74
2021/04/24 05:11:13;;;;;;;12.40;5.72;;;;;;;7.20;58.85;101922.56;4407067;32;20459;-74
2021/04/24 05:13:39;;;;;;;12.18;4.87;;;;;;;7.22;58.78;101923.00;4406629;32;20071;-73
2021/04/24 05:16:05;;;;;;;12.70;4.78;;;;;;;7.31;58.71;101931.06;4408236;32;20034;-74
2021/04/24 05:18:31;;;;;;;15.30;5.72;;;;;;;7.31;58.75;101931.06;4403458;32;20073;-74
2021/04/24 05:20:57;;;;;;;14.98;6.32;;;;;;;7.39;58.48;101932.69;4403317;32;20190;-73
2021/04/24 05:23:22;;;;;;;21.60;6.18;;;;;;;7.45;58.40;101931.97;4408740;32;20073;-74
2021/04/24 05:25:48;;;;;;;18.12;6.30;;;;;;;7.51;58.43;101938.81;4406459;32;20055;-75
2021/04/24 05:28:14;;;;;;;17.12;5.12;;;;;;;7.57;58.36;101940.06;4405563;32;20199;-75
2021/04/24 05:30:40;;;;;;;15.43;5.25;;;;;;;7.66;58.25;101942.50;4407464;32;20034;-74
2021/04/24 05:33:07;;;;;;;12.60;5.20;;;;;;;7.73;57.94;101943.38;4403993;32;20117;-74
2021/04/24 05:35:33;;;;;;;13.13;5.43;;;;;;;7.91;57.50;101946.28;4405438;32;20099;-73
2021/04/24 05:38:00;;;;;;;12.77;5.30;;;;;;;8.04;57.12;101953.19;4404310;32;20386;-74
2021/04/24 05:40:26;;;;;;;16.90;5.85;;;;;;;8.16;57.01;101961.22;4401578;32;20030;-74
2021/04/24 05:42:52;;;;;;;16.05;6.07;;;;;;;8.25;57.01;101958.13;4402246;32;20124;-73
2021/04/24 05:45:18;;;;;;;13.82;6.55;;;;;;;8.38;56.96;101963.00;4406895;32;20034;-75
2021/04/24 05:47:47;;;;;;;15.77;7.22;;;;;;;8.54;56.90;101965.44;4404327;32;20405;-74
2021/04/24 05:50:17;;;;;;;13.02;6.65;;;;;;;8.70;56.66;101966.72;4403423;32;20692;-74
2021/04/24 05:52:44;;;;;;;16.00;7.12;;;;;;;8.81;56.36;101973.13;4402620;32;20123;-74
2021/04/24 05:55:11;;;;;;;17.37;8.02;;;;;;;8.92;56.37;101971.19;4404335;32;20104;-73
2021/04/24 05:57:37;;;;;;;17.92;8.38;;;;;;;9.18;55.84;101978.44;4403530;32;20081;-75
2021/04/24 06:00:06;;;;;;;18.58;8.25;;;;;;;9.27;55.61;101985.28;4402910;32;20061;-73
2021/04/24 06:02:34;;;;;;;23.12;9.05;;;;;;;9.48;55.21;101981.69;4404403;32;20068;-75
2021/04/24 06:05:02;;;;;;;19.00;7.60;;;;;;;9.58;54.96;101987.28;4408126;32;20057;-74
2021/04/24 06:07:29;;;;;;;21.10;7.55;;;;;;;9.68;54.48;101980.06;4401657;32;20042;-74
2021/04/24 06:09:54;;;;;;;12.88;7.00;;;;;;;9.88;53.89;101996.09;4402398;32;20119;-74
2021/04/24 06:12:20;;;;;;;17.25;7.65;;;;;;;10.02;53.25;102004.53;4405613;32;20402;-74
2021/04/24 06:14:45;;;;;;;21.67;8.30;;;;;;;10.21;52.98;101996.91;4401755;32;20141;-73
2021/04/24 06:17:11;;;;;;;24.58;8.38;;;;;;;10.34;52.52;101989.63;4408249;32;20429;-74
2021/04/24 06:19:37;;;;;;;23.35;8.27;;;;;;;10.43;52.15;101995.63;4404230;32;20093;-74
2021/04/24 06:22:03;;;;;;;26.27;8.23;;;;;;;10.59;51.97;101998.78;4405756;32;20089;-74
2021/04/24 06:24:28;;;;;;;20.90;9.02;;;;;;;10.73;51.45;101991.06;4403834;32;20074;-74
2021/04/24 06:26:54;;;;;;;25.00;8.30;;;;;;;10.78;51.12;101998.28;4407530;32;20123;-74
2021/04/24 06:29:19;;;;;;;20.65;8.13;;;;;;;10.95;50.36;102003.03;4405883;32;20045;-73
2021/04/24 06:31:45;;;;;;;22.13;9.02;;;;;;;11.07;50.04;102013.81;4405091;32;20035;-73
2021/04/24 06:34:11;;;;;;;22.83;9.45;;;;;;;11.17;49.81;102012.97;4402018;32;20045;-73
2021/04/24 06:36:37;;;;;;;22.37;9.32;;;;;;;11.28;49.49;102019.31;4401394;32;20112;-73
2021/04/24 06:39:05;;;;;;;18.75;8.57;;;;;;;11.37;49.21;102012.00;4402676;32;20086;-73
2021/04/24 06:41:31;;;;;;;18.75;7.95;;;;;;;11.54;48.45;102013.88;4402067;32;20033;-74
2021/04/24 06:43:57;;;;;;;20.75;8.43;;;;;;;11.66;48.01;102023.91;4407470;32;20452;-73
2021/04/24 06:46:23;;;;;;;25.98;8.45;;;;;;;11.76;47.74;102023.03;4403461;32;20077;-74
2021/04/24 06:48:49;;;;;;;19.92;7.93;;;;;;;11.88;47.53;102020.47;4408374;32;20481;-73
2021/04/24 06:51:14;;;;;;;20.95;8.32;;;;;;;11.99;47.02;102020.37;4408396;32;20060;-73
2021/04/24 06:53:41;;;;;;;20.80;8.18;;;;;;;12.18;46.93;102022.59;4410159;32;20042;-75
2021/04/24 06:56:06;;;;;;;17.83;8.82;;;;;;;12.31;46.14;102025.72;4405700;32;20057;-74
2021/04/24 06:58:32;;;;;;;15.65;7.62;;;;;;;12.46;45.81;102032.81;4405777;32;20039;-74
2021/04/24 07:00:58;;;;;;;18.42;8.23;;;;;;;12.57;45.67;102037.09;4406222;32;20480;-74
2021/04/24 07:03:25;;;;;;;28.10;8.27;;;;;;;12.72;45.30;102035.72;4411346;32;20418;-74
2021/04/24 07:05:51;;;;;;;21.17;8.10;;;;;;;12.92;44.73;102036.66;4414771;32;20105;-73
2021/04/24 07:08:17;;;;;;;17.45;7.68;;;;;;;12.84;44.87;102051.31;4410731;32;20089;-74
2021/04/24 07:10:42;;;;;;;17.05;7.45;;;;;;;12.93;44.44;102043.13;4397642;32;20041;-73
2021/04/24 07:13:08;;;;;;;13.23;7.35;;;;;;;12.93;44.40;102041.09;4412606;32;20572;-73
2021/04/24 07:15:34;;;;;;;20.50;7.60;;;;;;;13.08;44.00;102044.56;4414850;32;20116;-74
2021/04/24 07:17:59;;;;;;;20.60;7.80;;;;;;;12.96;43.85;102045.91;4414889;32;20056;-73
2021/04/24 07:20:25;;;;;;;19.77;7.40;;;;;;;13.20;43.36;102053.25;4409508;32;20045;-73
2021/04/24 07:22:52;;;;;;;17.80;6.85;;;;;;;13.17;43.47;102059.78;4413498;32;20068;-74
2021/04/24 07:25:18;;;;;;;23.42;8.52;;;;;;;13.25;43.06;102052.81;4415364;32;20545;-73
2021/04/24 07:27:43;;;;;;;16.87;7.65;;;;;;;13.41;42.63;102057.84;4415043;32;20390;-74
2021/04/24 07:30:10;;;;;;;21.80;7.28;;;;;;;13.64;42.07;102055.03;4413020;32;20113;-74
2021/04/24 07:32:37;;;;;;;16.27;7.62;;;;;;;13.45;42.44;102052.91;4412055;32;20399;-73
2021/04/24 07:35:04;;;;;;;17.17;6.93;;;;;;;13.58;41.95;102049.09;4412106;32;20022;-74
2021/04/24 07:37:30;;;;;;;16.48;6.32;;;;;;;13.92;41.25;102060.25;4412629;32;20076;-73
2021/04/24 07:39:56;;;;;;;17.60;7.07;;;;;;;14.13;40.80;102059.06;4414034;32;20041;-74
2021/04/24 07:42:22;;;;;;;16.37;7.00;;;;;;;14.31;40.46;102066.06;4395762;32;20054;-73
2021/04/24 07:44:48;;;;;;;15.10;7.40;;;;;;;14.44;40.08;102052.06;4413674;32;20108;-73
2021/04/24 07:47:13;;;;;;;18.25;6.78;;;;;;;14.60;39.48;102063.50;4412770;32;20074;-74
2021/04/24 07:49:40;;;;;;;18.15;6.68;;;;;;;14.67;39.44;102061.31;4414901;32;20089;-74
2021/04/24 07:52:08;;;;;;;16.35;7.03;;;;;;;14.86;39.20;102060.53;4411338;32;20387;-73
2021/04/24 07:54:35;;;;;;;17.45;6.65;;;;;;;15.10;38.71;102070.53;4415046;32;20418;-74
2021/04/24 07:57:03;;;;;;;17.65;7.45;;;;;;;15.34;37.94;102066.34;4413807;32;20031;-72
2021/04/24 07:59:29;;;;;;;14.27;6.32;;;;;;;15.34;37.75;102076.91;4413194;32;20049;-73
2021/04/24 08:01:55;;;;;;;22.75;7.65;;;;;;;15.56;37.49;102066.72;4408978;32;20046;-72
2021/04/24 08:04:21;;;;;;;20.52;6.90;;;;;;;15.82;37.01;102071.34;4413915;32;20034;-73
2021/04/24 08:06:46;;;;;;;14.57;6.30;;;;;;;15.95;36.69;102075.88;4413288;32;20057;-73
2021/04/24 08:09:13;;;;;;;20.67;6.45;;;;;;;16.13;36.23;102074.63;4411773;32;20017;-73
2021/04/24 08:11:38;;;;;;;16.35;6.90;;;;;;;16.19;36.11;102076.47;4411720;32;20123;-74
2021/04/24 08:14:05;;;;;;;15.23;7.35;;;;;;;16.41;35.59;102065.38;4414963;32;20098;-74
2021/04/24 08:16:31;;;;;;;16.27;6.65;;;;;;;16.38;35.48;102069.88;4411530;32;20060;-72
2021/04/24 08:18:56;;;;;;;15.27;6.80;;;;;;;16.60;35.15;102075.81;4412687;32;20168;-73
2021/04/24 08:21:23;;;;;;;25.08;7.22;;;;;;;16.71;34.69;102062.91;4411887;32;20414;-72
2021/04/24 08:23:48;;;;;;;18.52;7.50;;;;;;;16.57;35.33;102068.97;4412752;32;20100;-72
2021/04/24 08:26:14;;;;;;;20.73;7.15;;;;;;;16.77;35.05;102063.94;4409600;32;20037;-73
2021/04/24 08:28:40;;;;;;;15.95;7.22;;;;;;;16.79;34.80;102066.34;4413388;32;20077;-73
2021/04/24 08:31:06;;;;;;;17.42;7.57;;;;;;;17.05;34.58;102065.97;4409817;32;20060;-73
2021/04/24 08:33:31;;;;;;;16.02;7.12;;;;;;;17.11;34.27;102072.69;4412938;32;20059;-73
2021/04/24 08:35:57;;;;;;;19.83;7.47;;;;;;;17.21;34.19;102067.94;4412695;32;20123;-72
2021/04/24 08:38:23;;;;;;;19.58;6.70;;;;;;;17.28;34.18;102071.34;4409615;32;20067;-73
2021/04/24 08:40:50;;;;;;;17.08;7.70;;;;;;;17.40;33.81;102066.94;4409557;32;20046;-73
2021/04/24 08:43:16;;;;;;;20.73;8.18;;;;;;;17.54;33.76;102073.00;4412221;32;20069;-74
2021/04/24 08:45:43;;;;;;;20.48;8.27;;;;;;;17.59;33.42;102061.06;4413862;32;20022;-73
2021/04/24 08:48:10;;;;;;;19.70;8.15;;;;;;;17.85;33.09;102064.69;4411790;32;20069;-73
2021/04/24 08:50:35;;;;;;;30.40;8.73;;;;;;;17.87;33.08;102071.53;4412841;32;20034;-73
2021/04/24 08:53:03;;;;;;;14.90;8.73;;;;;;;17.99;33.07;102067.06;4408891;32;20030;-74
2021/04/24 08:55:32;;;;;;;18.10;8.90;;;;;;;18.30;32.42;102076.59;4410626;32;20074;-74
2021/04/24 08:57:58;;;;;;;19.70;8.85;;;;;;;18.55;32.15;102075.72;4413476;32;20065;-74
2021/04/24 09:00:27;;;;;;;31.83;8.75;;;;;;;18.39;32.24;102078.75;4412767;32;20078;-73
2021/04/24 09:02:54;;;;;;;16.50;8.05;;;;;;;18.78;31.93;102081.00;4409528;32;20509;-73
2021/04/24 09:05:22;;;;;;;17.45;8.10;;;;;;;18.36;32.17;102091.84;4411489;32;20361;-75
2021/04/24 09:07:57;;;;;;;19.27;8.57;;;;;;;18.18;32.56;102091.66;4408997;32;20412;-73
2021/04/24 09:10:23;;;;;;;22.08;9.77;;;;;;;18.55;32.02;102089.97;4409997;32;20061;-74
2021/04/24 09:12:50;;;;;;;23.20;9.80;;;;;;;18.77;31.73;102087.94;4412554;32;20106;-74
2021/04/24 09:20:31;;;;;;;18.43;7.67;;;;;;;19.31;31.02;102085.53;4006940;31;15016014;-73
2021/04/24 09:23:06;;;;;;;23.30;9.02;;;;;;;19.24;31.33;102082.94;4447535;32;20211;-75
2021/04/24 09:25:48;;;;;;;;;;;;;;;19.36;31.30;102085.72;4464073;32;20088;-72
2021/04/24 09:28:35;;;;;;;21.48;8.02;;;;;;;19.73;30.53;102089.56;4465212;32;19992;-75
2021/04/24 09:33:47;;;;;;;19.92;8.55;;;;;;;20.87;29.35;102089.97;3983748;32;15026862;-74
2021/04/24 09:36:14;;;;;;;19.70;9.00;;;;;;;20.87;29.35;102089.97;4435054;32;20061;-74
2021/04/24 09:38:42;;;;;;;23.58;8.38;;;;;;;20.62;29.64;102088.19;4435953;32;20030;-74
2021/04/24 09:41:13;;;;;;;19.62;8.43;;;;;;;19.91;30.33;102089.62;4427779;32;20092;-74
2021/04/24 09:46:25;;;;;;;19.60;8.60;;;;;;;20.77;29.78;102089.16;4006069;31;15019821;-74
2021/04/24 09:51:55;;;;;;;19.48;8.60;;;;;;;21.51;28.43;102094.34;3984780;32;15026489;-74
2021/04/24 09:54:24;;;;;;;16.00;7.32;;;;;;;21.51;28.43;102094.34;4435321;32;20029;-73
2021/04/24 09:57:11;;;;;;;19.12;8.43;;;;;;;21.47;28.13;102087.97;4441009;32;20136;-73
2021/04/24 10:05:24;;;;;;;21.70;8.38;;;;;;;21.72;28.13;102090.44;3983547;32;15023053;-74
2021/04/24 10:13:08;;;;;;;24.00;10.15;;;;;;;22.67;27.16;102088.50;3970700;32;15027657;-74
2021/04/24 10:15:39;;;;;;;18.12;10.20;;;;;;;22.67;27.16;102088.50;4418339;32;20033;-75
2021/04/24 10:18:07;;;;;;;28.50;10.15;;;;;;;22.38;27.39;102096.97;4417549;32;20190;-74
2021/04/24 10:20:35;;;;;;;16.77;9.60;;;;;;;22.41;27.10;102087.37;4419267;32;20070;-74
2021/04/24 10:23:02;;;;;;;18.33;10.68;;;;;;;22.03;27.43;102093.03;4419355;32;20022;-75
2021/04/24 10:25:29;;;;;;;21.73;10.35;;;;;;;22.22;27.55;102088.78;4416719;32;20037;-74
2021/04/24 10:27:57;;;;;;;20.52;10.77;;;;;;;22.34;27.63;102094.28;4419093;32;20052;-74
2021/04/24 10:30:23;;;;;;;17.30;8.93;;;;;;;22.42;27.23;102091.81;4419259;32;20096;-74
2021/04/24 10:32:50;;;;;;;17.55;9.27;;;;;;;22.52;27.00;102088.44;4419616;32;20465;-74
2021/04/24 10:35:15;;;;;;;26.45;9.73;;;;;;;22.67;26.73;102085.62;4416397;32;20078;-74
2021/04/24 10:37:46;;;;;;;13.73;9.00;;;;;;;22.43;26.94;102085.59;4418821;32;20417;-74
2021/04/24 10:40:12;;;;;;;21.70;9.18;;;;;;;22.80;26.43;102091.91;4413888;32;20102;-75
2021/04/24 10:42:39;;;;;;;16.60;8.55;;;;;;;23.09;26.20;102092.75;4417430;32;20447;-73
2021/04/24 10:45:06;;;;;;;19.42;8.20;;;;;;;23.22;26.14;102087.50;4419448;32;20107;-72
2021/04/24 10:50:39;;;;;;;22.47;9.43;;;;;;;24.06;25.33;102093.44;3995396;31;15014309;-74
2021/04/24 10:55:59;;;;;;;17.25;9.38;;;;;;;24.63;24.66;102096.53;3999985;31;15018773;-74
2021/04/24 10:58:27;;;;;;;16.60;9.27;;;;;;;24.63;24.66;102096.53;4468492;32;20561;-74
2021/04/24 11:00:55;;;;;;;18.87;9.38;;;;;;;24.47;24.79;102092.16;4465287;32;20080;-74
2021/04/24 11:03:42;;;;;;;18.75;9.68;;;;;;;24.91;24.11;102092.75;4463841;32;20095;-75
2021/04/24 11:08:46;;;;;;;22.65;9.48;;;;;;;25.07;24.03;102086.38;3955814;32;15724467;-75
2021/04/24 11:13:54;;;;;;;19.70;10.00;;;;;;;24.81;24.92;102081.88;3962991;32;15022644;-75
2021/04/24 11:16:22;;;;;;;20.92;8.77;;;;;;;24.81;24.92;102081.88;4418805;32;20489;-73
2021/04/24 11:18:49;;;;;;;15.13;8.63;;;;;;;25.11;24.35;102078.31;4414361;32;20831;-72
2021/04/24 11:24:15;;;;;;;20.65;9.30;;;;;;;25.07;24.18;102076.97;3983584;32;15022752;-75
2021/04/24 11:32:20;;;;;;;18.95;10.18;;;;;;;24.33;25.02;102072.09;3977185;32;15026167;-74
2021/04/24 11:34:48;;;;;;;21.87;10.10;;;;;;;23.33;25.92;102059.03;4425517;32;20131;-74
2021/04/24 11:40:20;;;;;;;18.95;9.18;;;;;;;25.09;24.40;102069.38;3982556;32;15026933;-74
2021/04/24 11:56:50;;;;;;;19.80;9.70;;;;;;;25.07;24.44;102060.44;3985461;32;15030437;-74
2021/04/24 11:59:21;;;;;;;20.95;10.73;;;;;;;25.07;24.44;102060.44;4435539;32;20096;-73
2021/04/24 12:01:46;;;;;;;22.25;9.55;;;;;;;25.52;24.05;102055.16;4428614;32;20022;-74
2021/04/24 12:04:34;;;;;;;16.83;9.75;;;;;;;26.05;23.03;102056.06;4424353;32;20026;-74
2021/04/24 12:07:04;;;;;;;17.70;9.20;;;;;;;26.78;22.58;102053.03;4424487;32;20083;-73
2021/04/24 12:09:30;;;;;;;18.08;9.85;;;;;;;27.14;21.41;102040.50;4423081;32;20068;-73
2021/04/24 12:12:00;;;;;;;17.70;9.35;;;;;;;27.28;21.72;102038.72;4423594;32;20414;-74
2021/04/24 12:14:28;;;;;;;19.35;10.02;;;;;;;27.43;21.24;102047.94;4423374;32;20064;-74
2021/04/24 12:16:55;;;;;;;17.65;8.93;;;;;;;27.45;21.43;102038.75;4424986;32;20105;-74
2021/04/24 12:35:28;;;;;;;20.50;9.27;;;;;;;28.27;19.49;102020.44;3990446;31;15018215;-73